• Join FlightAware (Why Join?)
  • Login
  • US Flag 
05:56AM EDT


 

Airport Tracker/Info


-or-


 

Live Flight TrackerFlight Track Log ✈ N232CF ✈ 10-Jun-2013 ✈ KPDK - KGGG

Flight Track Log - Related Links

Times and Time Zones

All times are in EDT time to prevent confusion due to time zone crossing. See the N232CF flight status page for this flight to view local times or setup timezone preferences in your user account.

Time Position Orientation Groundspeed Altitude Reporting Facility
EDT Latitude Longitude Course Direction KTS MPH feet Rate Location/Type
10:02AM 33.8500 -84.3167 239° Southwest 190 219 2,400  Level Atlanta TRACON
10:03AM 33.8167 -84.3833 239° Southwest 242 278 3,500 1,680 Climbing Atlanta TRACON
10:04AM 33.8167 -84.4667 270° West 255 293 6,000 1,200 Climbing Atlanta TRACON
10:05AM 33.8167 -84.5667 270° West 256 295 6,000 540 Level Atlanta TRACON
10:06AM 33.8167 -84.6500 270° West 256 295 7,100 2,400 Climbing Atlanta TRACON
10:07AM 33.8167 -84.7333 270° West 259 298 10,900 2,340 Climbing Atlanta TRACON
10:10AM 33.7389 -84.9331 245° Southwest 323 372 14,700 1,920 Climbing Atlanta Center
10:11AM 33.7025 -85.0425 248° West 359 413 17,200 2,580 Climbing Atlanta Center
10:12AM 33.6825 -85.1697 259° West 365 420 19,900 2,280 Climbing Atlanta Center
10:13AM 33.6731 -85.2919 265° West 360 414 21,800 1,980 Climbing Atlanta Center
10:14AM 33.6550 -85.4139 260° West 368 423 23,900 2,100 Climbing Atlanta Center
10:15AM 33.6308 -85.5333 256° West 374 430 26,100 1,980 Climbing Atlanta Center
10:16AM 33.6125 -85.6603 260° West 374 430 27,900 1,800 Climbing Atlanta Center
10:17AM 33.6022 -85.7897 265° West 384 442 29,800 1,860 Climbing Atlanta Center
10:18AM 33.5883 -85.8967 261° West 384 442 31,700 1,800 Climbing Atlanta Center
10:19AM 33.5756 -86.0408 264° West 395 455 33,500 1,500 Climbing Atlanta Center
10:20AM 33.5628 -86.1728 263° West 395 455 34,800 1,740 Climbing Atlanta Center
10:21AM 33.5478 -86.3119 263° West 415 478 37,000 1,800 Climbing Atlanta Center
10:22AM 33.5353 -86.4239 262° West 415 478 38,400 1,500 Climbing Atlanta Center
10:23AM 33.5178 -86.5728 262° West 421 484 40,000 780 Climbing Atlanta Center
10:24AM 33.5022 -86.7169 263° West 432 497 40,000  Level Atlanta Center
10:25AM 33.4864 -86.8683 263° West 449 517 40,000  Level Atlanta Center
10:26AM 33.4700 -87.0247 263° West 468 539 40,000  Level Atlanta Center
10:27AM 33.4514 -87.1858 262° West 485 558 40,000  Level Atlanta Center
10:29AM 33.4156 -87.5028 262° West 480 552 40,000  Level Memphis Center
10:30AM 33.3961 -87.6600 262° West 485 558 40,000  Level Memphis Center
10:31AM 33.3786 -87.8147 262° West 485 558 40,000 900 Level Memphis Center
10:32AM 33.3628 -87.9669 263° West 479 551 41,800 1,500 Climbing Memphis Center
10:33AM 33.3467 -88.1167 263° West 467 537 43,000 600 Climbing Memphis Center
10:34AM 33.3289 -88.2836 263° West 467 537 43,000  Level Memphis Center
10:35AM 33.3083 -88.4358 261° West 467 537 43,000  Level Memphis Center
10:36AM 33.2897 -88.5978 262° West 477 549 43,000  Level Memphis Center
10:37AM 33.2711 -88.7547 262° West 487 560 43,000  Level Memphis Center
10:38AM 33.2500 -88.9139 261° West 487 560 43,000  Level Memphis Center
10:39AM 33.2331 -89.0758 263° West 487 560 43,000  Level Memphis Center
10:40AM 33.2094 -89.2350 260° West 487 560 43,000  Level Memphis Center
10:41AM 33.1919 -89.3817 262° West 492 566 43,000  Level Memphis Center
10:42AM 33.1722 -89.5408 262° West 492 566 43,000  Level Memphis Center
10:43AM 33.1525 -89.7047 262° West 492 566 43,000  Level Memphis Center
10:44AM 33.1322 -89.8686 262° West 499 574 43,000  Level Memphis Center
10:45AM 33.1078 -90.0347 260° West 505 581 43,000  Level Memphis Center
10:46AM 33.0853 -90.1961 261° West 505 581 43,000  Level Memphis Center
10:47AM 33.0581 -90.3747 260° West 505 581 43,000  Level Memphis Center
10:48AM 33.0372 -90.5356 261° West 505 581 43,000  Level Memphis Center
10:49AM 33.0139 -90.6992 260° West 505 581 43,000  Level Memphis Center
10:50AM 32.9903 -90.8600 260° West 505 581 43,000  Level Memphis Center
10:51AM 32.9667 -91.0208 260° West 505 581 43,000  Level Memphis Center
10:52AM 32.9447 -91.1842 261° West 505 581 43,000  Level Memphis Center
10:54AM 32.8931 -91.5531 261° West 491 565 43,000  Level Fort Worth Center
10:55AM 32.8692 -91.7128 260° West 491 565 43,000 -120 Level Fort Worth Center
10:56AM 32.8469 -91.8700 260° West 485 558 42,800 -720 Descending Fort Worth Center
10:57AM 32.8225 -92.0297 260° West 485 558 41,600 -1,200 Descending Fort Worth Center
10:58AM 32.7997 -92.1842 260° West 490 564 40,400 -1,500 Descending Fort Worth Center
10:59AM 32.7750 -92.3414 259° West 490 564 38,700 -1,680 Descending Fort Worth Center
11:00AM 32.7500 -92.5008 259° West 490 564 37,100 -1,800 Descending Fort Worth Center
11:01AM 32.7267 -92.6550 260° West 490 564 35,200 -1,920 Descending Fort Worth Center
11:02AM 32.7014 -92.8144 259° West 490 564 33,300 -2,100 Descending Fort Worth Center
11:03AM 32.6758 -92.9761 259° West 490 564 31,000 -1,740 Descending Fort Worth Center
11:04AM 32.6500 -93.1378 259° West 490 564 29,900 -1,380 Descending Fort Worth Center
11:05AM 32.6200 -93.2969 257° West 490 564 28,300 -1,320 Descending Fort Worth Center
11:06AM 32.5939 -93.4608 259° West 490 564 27,300 -1,080 Descending Fort Worth Center
11:07AM 32.5694 -93.6172 260° West 496 571 26,200 -1,200 Descending Fort Worth Center
11:08AM 32.5428 -93.7736 259° West 491 565 25,000 -1,260 Descending Fort Worth Center
11:09AM 32.5139 -93.9325 258° West 491 565 23,700 -1,500 Descending Fort Worth Center
11:10AM 32.4908 -94.0811 260° West 486 559 22,100 -1,920 Descending Fort Worth Center
11:11AM 32.4653 -94.2297 259° West 475 547 19,900 -2,220 Descending Fort Worth Center
11:12AM 32.4419 -94.3783 259° West 470 541 17,700 -3,480 Descending Fort Worth Center
11:13AM 32.4181 -94.5192 259° West 450 518 13,000 -4,440 Descending Fort Worth Center
11:14AM 32.3939 -94.6431 257° West 409 471 8,900 -3,420 Descending Fort Worth Center
11:15AM 32.3728 -94.7297 254° West 366 421 6,200 -2,520 Descending Fort Worth Center
11:16AM 32.3950 -94.8031 290° West 289 333 3,900 -1,740 Descending Fort Worth Center
11:17AM 32.4639 -94.7936 North 193 222 2,800 -900 Descending Fort Worth Center
11:18AM 32.4667 -94.7269 87° East 105 121 2,100 10,560 Descending Fort Worth Center
11:19AM 32.4933 -94.7042 36° Northeast 105 121 24,000 10,920 Climbing Fort Worth Center
11:20AM 32.5136 -94.6789 46° Northeast 105 121 24,000  Level Fort Worth Center
11:21AM 32.5339 -94.6536 46° Northeast 105 121 24,000  Level Fort Worth Center
11:22AM 32.5542 -94.6283 46° Northeast 105 121 24,000  Level Fort Worth Center
11:23AM 32.5542 -94.6283 220° Southwest 105 121 24,000  Level Fort Worth Center
11:25AM 32.5542 -94.6283 220° Southwest 105 121 24,000  Level Fort Worth Center